POW weather

Portoroz Airport
Portoroz, Piran, Slovenia

Public forecast

Using degrees Celsius for public forecast. Weather courtesy of forecast.io.

METAR (pilot weather report)

Retrieved 2019/05/27 01:30 UTC (4 minutes ago):

LJPZ 270130Z AUTO VRB01KT 9999 -SHRA BKN020/// 16/15 Q1012

TAF (pilot weather forecast)

Forecast is more than 12 hours old.

Closest forecast is Trieste–Friuli Venezia Giulia Airport, 22.1 nm (40.9 km) NNW. Retrieved 2019/05/26 00:21 UTC (1 day ago):

TAF LIPQ 262300Z 2700/2724 VRB05KT 9999 SCT020 BKN040 TEMPO 2702/2718 RA TEMPO 2718/2724 3000 SHRA